sensor_id;sensor_type;location;lat;lon;timestamp;P1;durP1;ratioP1;P2;durP2;ratioP2
72335;SDS011;65062;48.446;8.834;2023-03-16T00:02:44;4.88;;;3.17;;
72335;SDS011;65062;48.446;8.834;2023-03-16T00:05:45;4.47;;;2.40;;
72335;SDS011;65062;48.446;8.834;2023-03-16T00:08:46;5.25;;;3.08;;
72335;SDS011;65062;48.446;8.834;2023-03-16T00:11:46;5.35;;;2.85;;
72335;SDS011;65062;48.446;8.834;2023-03-16T00:14:47;4.35;;;3.13;;
72335;SDS011;65062;48.446;8.834;2023-03-16T00:17:48;6.75;;;3.50;;
72335;SDS011;65062;48.446;8.834;2023-03-16T00:20:49;4.78;;;2.70;;
72335;SDS011;65062;48.446;8.834;2023-03-16T00:23:50;6.75;;;2.80;;
72335;SDS011;65062;48.446;8.834;2023-03-16T00:26:52;5.95;;;2.67;;
72335;SDS011;65062;48.446;8.834;2023-03-16T00:29:54;6.10;;;3.65;;
72335;SDS011;65062;48.446;8.834;2023-03-16T00:32:57;5.80;;;3.25;;
72335;SDS011;65062;48.446;8.834;2023-03-16T00:35:58;5.22;;;2.80;;
72335;SDS011;65062;48.446;8.834;2023-03-16T00:39:03;4.32;;;3.05;;
72335;SDS011;65062;48.446;8.834;2023-03-16T00:42:05;3.97;;;3.20;;
72335;SDS011;65062;48.446;8.834;2023-03-16T00:45:05;4.70;;;3.22;;
72335;SDS011;65062;48.446;8.834;2023-03-16T00:48:06;6.88;;;3.63;;
72335;SDS011;65062;48.446;8.834;2023-03-16T00:51:08;5.70;;;3.80;;
72335;SDS011;65062;48.446;8.834;2023-03-16T00:54:18;6.38;;;3.40;;
72335;SDS011;65062;48.446;8.834;2023-03-16T00:57:19;8.40;;;4.03;;
72335;SDS011;65062;48.446;8.834;2023-03-16T01:00:21;6.65;;;3.40;;
72335;SDS011;65062;48.446;8.834;2023-03-16T01:03:25;3.38;;;2.90;;
72335;SDS011;65062;48.446;8.834;2023-03-16T01:06:25;3.47;;;2.83;;
72335;SDS011;65062;48.446;8.834;2023-03-16T01:09:26;6.28;;;4.25;;
72335;SDS011;65062;48.446;8.834;2023-03-16T01:12:26;6.68;;;3.97;;
72335;SDS011;65062;48.446;8.834;2023-03-16T01:15:28;5.93;;;3.90;;
72335;SDS011;65062;48.446;8.834;2023-03-16T01:18:29;6.43;;;3.80;;
72335;SDS011;65062;48.446;8.834;2023-03-16T01:21:33;7.60;;;3.97;;
72335;SDS011;65062;48.446;8.834;2023-03-16T01:24:35;6.45;;;4.00;;
72335;SDS011;65062;48.446;8.834;2023-03-16T01:27:37;9.50;;;4.78;;
72335;SDS011;65062;48.446;8.834;2023-03-16T01:30:37;8.45;;;4.15;;
72335;SDS011;65062;48.446;8.834;2023-03-16T01:33:39;11.25;;;4.60;;
72335;SDS011;65062;48.446;8.834;2023-03-16T01:36:40;5.80;;;3.88;;
72335;SDS011;65062;48.446;8.834;2023-03-16T01:39:40;9.77;;;5.05;;
72335;SDS011;65062;48.446;8.834;2023-03-16T01:42:44;8.43;;;4.80;;
72335;SDS011;65062;48.446;8.834;2023-03-16T01:49:11;13.90;;;3.90;;
72335;SDS011;65062;48.446;8.834;2023-03-16T01:52:26;6.95;;;4.15;;
72335;SDS011;65062;48.446;8.834;2023-03-16T01:55:32;9.20;;;4.45;;
72335;SDS011;65062;48.446;8.834;2023-03-16T01:58:33;7.28;;;4.60;;
72335;SDS011;65062;48.446;8.834;2023-03-16T02:01:36;19.65;;;4.35;;
72335;SDS011;65062;48.446;8.834;2023-03-16T02:08:12;15.23;;;4.50;;
72335;SDS011;65062;48.446;8.834;2023-03-16T02:11:12;7.93;;;4.47;;
72335;SDS011;65062;48.446;8.834;2023-03-16T02:14:17;7.57;;;3.95;;
72335;SDS011;65062;48.446;8.834;2023-03-16T02:17:19;7.82;;;3.78;;
72335;SDS011;65062;48.446;8.834;2023-03-16T02:23:41;18.52;;;6.32;;
72335;SDS011;65062;48.446;8.834;2023-03-16T02:26:46;11.88;;;4.40;;
72335;SDS011;65062;48.446;8.834;2023-03-16T02:30:03;9.77;;;4.47;;
72335;SDS011;65062;48.446;8.834;2023-03-16T02:33:05;15.30;;;4.40;;
72335;SDS011;65062;48.446;8.834;2023-03-16T02:36:06;6.15;;;3.72;;
72335;SDS011;65062;48.446;8.834;2023-03-16T02:39:07;12.70;;;5.07;;
72335;SDS011;65062;48.446;8.834;2023-03-16T02:42:08;8.52;;;4.95;;
72335;SDS011;65062;48.446;8.834;2023-03-16T02:45:12;24.95;;;5.75;;
72335;SDS011;65062;48.446;8.834;2023-03-16T02:48:15;9.77;;;5.30;;
72335;SDS011;65062;48.446;8.834;2023-03-16T02:51:21;8.15;;;5.28;;
72335;SDS011;65062;48.446;8.834;2023-03-16T02:54:22;10.50;;;5.32;;
72335;SDS011;65062;48.446;8.834;2023-03-16T02:57:23;9.90;;;5.43;;
72335;SDS011;65062;48.446;8.834;2023-03-16T03:00:23;11.90;;;6.55;;
72335;SDS011;65062;48.446;8.834;2023-03-16T03:03:24;14.55;;;7.28;;
72335;SDS011;65062;48.446;8.834;2023-03-16T03:06:24;16.50;;;7.45;;
72335;SDS011;65062;48.446;8.834;2023-03-16T03:09:24;12.95;;;7.10;;
72335;SDS011;65062;48.446;8.834;2023-03-16T03:12:25;12.05;;;6.97;;
72335;SDS011;65062;48.446;8.834;2023-03-16T03:15:25;14.63;;;8.13;;
72335;SDS011;65062;48.446;8.834;2023-03-16T03:18:26;15.43;;;8.23;;
72335;SDS011;65062;48.446;8.834;2023-03-16T03:21:27;16.30;;;7.68;;
72335;SDS011;65062;48.446;8.834;2023-03-16T03:24:29;11.93;;;7.53;;
72335;SDS011;65062;48.446;8.834;2023-03-16T03:27:30;17.33;;;8.88;;
72335;SDS011;65062;48.446;8.834;2023-03-16T03:30:32;14.52;;;7.53;;
72335;SDS011;65062;48.446;8.834;2023-03-16T03:33:32;16.00;;;8.32;;
72335;SDS011;65062;48.446;8.834;2023-03-16T03:36:33;14.95;;;7.90;;
72335;SDS011;65062;48.446;8.834;2023-03-16T03:39:34;14.57;;;8.00;;
72335;SDS011;65062;48.446;8.834;2023-03-16T03:42:34;11.65;;;6.40;;
72335;SDS011;65062;48.446;8.834;2023-03-16T03:45:35;12.52;;;7.85;;
72335;SDS011;65062;48.446;8.834;2023-03-16T03:48:35;11.77;;;7.32;;
72335;SDS011;65062;48.446;8.834;2023-03-16T03:51:35;12.60;;;7.72;;
72335;SDS011;65062;48.446;8.834;2023-03-16T03:54:36;14.00;;;7.63;;
72335;SDS011;65062;48.446;8.834;2023-03-16T03:57:36;14.60;;;7.50;;
72335;SDS011;65062;48.446;8.834;2023-03-16T04:00:37;10.02;;;6.57;;
72335;SDS011;65062;48.446;8.834;2023-03-16T04:03:37;11.88;;;7.05;;
72335;SDS011;65062;48.446;8.834;2023-03-16T04:06:38;11.20;;;5.43;;
72335;SDS011;65062;48.446;8.834;2023-03-16T04:09:38;14.98;;;7.15;;
72335;SDS011;65062;48.446;8.834;2023-03-16T04:12:38;13.00;;;8.30;;
72335;SDS011;65062;48.446;8.834;2023-03-16T04:15:39;10.57;;;6.80;;
72335;SDS011;65062;48.446;8.834;2023-03-16T04:18:39;15.45;;;7.63;;
72335;SDS011;65062;48.446;8.834;2023-03-16T04:21:40;25.17;;;8.00;;
72335;SDS011;65062;48.446;8.834;2023-03-16T04:24:40;15.40;;;7.55;;
72335;SDS011;65062;48.446;8.834;2023-03-16T04:27:42;14.82;;;7.60;;
72335;SDS011;65062;48.446;8.834;2023-03-16T04:30:43;12.88;;;7.75;;
72335;SDS011;65062;48.446;8.834;2023-03-16T04:33:43;13.68;;;7.72;;
72335;SDS011;65062;48.446;8.834;2023-03-16T04:36:44;17.33;;;8.13;;
72335;SDS011;65062;48.446;8.834;2023-03-16T04:39:44;13.65;;;8.40;;
72335;SDS011;65062;48.446;8.834;2023-03-16T04:42:45;14.15;;;8.40;;
72335;SDS011;65062;48.446;8.834;2023-03-16T04:45:46;14.38;;;8.00;;
72335;SDS011;65062;48.446;8.834;2023-03-16T04:48:46;15.48;;;7.97;;
72335;SDS011;65062;48.446;8.834;2023-03-16T04:51:47;15.65;;;8.27;;
72335;SDS011;65062;48.446;8.834;2023-03-16T04:54:47;17.83;;;8.20;;
72335;SDS011;65062;48.446;8.834;2023-03-16T04:57:47;22.17;;;8.40;;
72335;SDS011;65062;48.446;8.834;2023-03-16T05:00:51;16.80;;;7.53;;
72335;SDS011;65062;48.446;8.834;2023-03-16T05:03:52;27.10;;;7.65;;
72335;SDS011;65062;48.446;8.834;2023-03-16T05:06:53;12.98;;;6.40;;
72335;SDS011;65062;48.446;8.834;2023-03-16T05:09:53;12.15;;;5.85;;
72335;SDS011;65062;48.446;8.834;2023-03-16T05:12:54;20.42;;;8.02;;
72335;SDS011;65062;48.446;8.834;2023-03-16T05:15:54;20.15;;;7.88;;
72335;SDS011;65062;48.446;8.834;2023-03-16T05:18:58;17.83;;;8.02;;
72335;SDS011;65062;48.446;8.834;2023-03-16T05:21:59;13.48;;;8.18;;
72335;SDS011;65062;48.446;8.834;2023-03-16T05:24:59;11.98;;;7.22;;
72335;SDS011;65062;48.446;8.834;2023-03-16T05:28:02;12.68;;;7.20;;
72335;SDS011;65062;48.446;8.834;2023-03-16T05:31:04;12.02;;;7.45;;
72335;SDS011;65062;48.446;8.834;2023-03-16T05:34:05;13.63;;;7.20;;
72335;SDS011;65062;48.446;8.834;2023-03-16T05:37:05;13.30;;;7.22;;
72335;SDS011;65062;48.446;8.834;2023-03-16T05:40:06;13.23;;;6.97;;
72335;SDS011;65062;48.446;8.834;2023-03-16T05:43:27;13.25;;;8.20;;
72335;SDS011;65062;48.446;8.834;2023-03-16T05:46:28;12.88;;;7.45;;
72335;SDS011;65062;48.446;8.834;2023-03-16T05:49:28;10.70;;;7.05;;
72335;SDS011;65062;48.446;8.834;2023-03-16T05:52:28;13.15;;;7.22;;
72335;SDS011;65062;48.446;8.834;2023-03-16T05:55:29;17.73;;;8.30;;
72335;SDS011;65062;48.446;8.834;2023-03-16T05:58:29;15.57;;;7.45;;
72335;SDS011;65062;48.446;8.834;2023-03-16T06:01:32;16.38;;;8.48;;
72335;SDS011;65062;48.446;8.834;2023-03-16T06:04:33;16.80;;;7.75;;
72335;SDS011;65062;48.446;8.834;2023-03-16T06:07:33;13.63;;;7.13;;
72335;SDS011;65062;48.446;8.834;2023-03-16T06:10:34;8.13;;;3.65;;
72335;SDS011;65062;48.446;8.834;2023-03-16T06:13:35;18.95;;;6.65;;
72335;SDS011;65062;48.446;8.834;2023-03-16T06:16:35;13.52;;;7.35;;
72335;SDS011;65062;48.446;8.834;2023-03-16T06:19:36;12.90;;;6.80;;
72335;SDS011;65062;48.446;8.834;2023-03-16T06:22:37;11.68;;;7.43;;
72335;SDS011;65062;48.446;8.834;2023-03-16T06:25:38;13.00;;;7.53;;
72335;SDS011;65062;48.446;8.834;2023-03-16T06:28:39;23.17;;;11.48;;
72335;SDS011;65062;48.446;8.834;2023-03-16T06:31:40;13.73;;;7.68;;
72335;SDS011;65062;48.446;8.834;2023-03-16T06:34:40;18.35;;;7.40;;
72335;SDS011;65062;48.446;8.834;2023-03-16T06:37:41;12.30;;;7.28;;
72335;SDS011;65062;48.446;8.834;2023-03-16T06:40:41;13.32;;;6.97;;
72335;SDS011;65062;48.446;8.834;2023-03-16T06:43:42;10.35;;;7.20;;
72335;SDS011;65062;48.446;8.834;2023-03-16T06:46:42;3.95;;;3.45;;
72335;SDS011;65062;48.446;8.834;2023-03-16T06:49:43;13.82;;;6.88;;
72335;SDS011;65062;48.446;8.834;2023-03-16T06:52:43;10.95;;;5.93;;
72335;SDS011;65062;48.446;8.834;2023-03-16T06:55:43;14.88;;;5.38;;
72335;SDS011;65062;48.446;8.834;2023-03-16T06:58:44;9.10;;;5.40;;
72335;SDS011;65062;48.446;8.834;2023-03-16T07:01:44;7.32;;;3.65;;
72335;SDS011;65062;48.446;8.834;2023-03-16T07:04:44;3.85;;;3.33;;
72335;SDS011;65062;48.446;8.834;2023-03-16T07:07:45;3.88;;;2.70;;
72335;SDS011;65062;48.446;8.834;2023-03-16T07:10:45;8.15;;;5.50;;
72335;SDS011;65062;48.446;8.834;2023-03-16T07:13:46;11.77;;;6.47;;
72335;SDS011;65062;48.446;8.834;2023-03-16T07:16:46;10.02;;;6.00;;
72335;SDS011;65062;48.446;8.834;2023-03-16T07:19:46;9.77;;;6.20;;
72335;SDS011;65062;48.446;8.834;2023-03-16T07:22:47;11.02;;;7.25;;
72335;SDS011;65062;48.446;8.834;2023-03-16T07:25:47;11.98;;;6.97;;
72335;SDS011;65062;48.446;8.834;2023-03-16T07:28:47;11.07;;;6.22;;
72335;SDS011;65062;48.446;8.834;2023-03-16T07:31:48;11.43;;;6.75;;
72335;SDS011;65062;48.446;8.834;2023-03-16T07:34:48;11.27;;;7.20;;
72335;SDS011;65062;48.446;8.834;2023-03-16T07:37:49;13.50;;;7.05;;
72335;SDS011;65062;48.446;8.834;2023-03-16T07:40:49;12.40;;;6.75;;
72335;SDS011;65062;48.446;8.834;2023-03-16T07:43:53;11.25;;;7.10;;
72335;SDS011;65062;48.446;8.834;2023-03-16T07:46:53;10.40;;;6.72;;
72335;SDS011;65062;48.446;8.834;2023-03-16T07:49:53;9.15;;;6.75;;
72335;SDS011;65062;48.446;8.834;2023-03-16T07:52:54;8.88;;;6.25;;
72335;SDS011;65062;48.446;8.834;2023-03-16T07:55:54;9.27;;;6.55;;
72335;SDS011;65062;48.446;8.834;2023-03-16T07:58:55;8.82;;;5.93;;
72335;SDS011;65062;48.446;8.834;2023-03-16T08:01:55;8.25;;;4.45;;
72335;SDS011;65062;48.446;8.834;2023-03-16T08:04:55;10.55;;;6.68;;
72335;SDS011;65062;48.446;8.834;2023-03-16T08:07:56;7.50;;;4.90;;
72335;SDS011;65062;48.446;8.834;2023-03-16T08:10:56;8.95;;;6.25;;
72335;SDS011;65062;48.446;8.834;2023-03-16T08:13:57;9.32;;;6.10;;
72335;SDS011;65062;48.446;8.834;2023-03-16T08:16:57;9.18;;;6.80;;
72335;SDS011;65062;48.446;8.834;2023-03-16T08:19:57;7.65;;;5.85;;
72335;SDS011;65062;48.446;8.834;2023-03-16T08:22:58;6.90;;;4.13;;
72335;SDS011;65062;48.446;8.834;2023-03-16T08:25:59;7.72;;;5.25;;
72335;SDS011;65062;48.446;8.834;2023-03-16T08:29:00;10.90;;;6.57;;
72335;SDS011;65062;48.446;8.834;2023-03-16T08:32:02;11.63;;;8.13;;
72335;SDS011;65062;48.446;8.834;2023-03-16T08:35:02;11.55;;;7.40;;
72335;SDS011;65062;48.446;8.834;2023-03-16T08:38:03;9.68;;;7.22;;
72335;SDS011;65062;48.446;8.834;2023-03-16T08:41:03;10.75;;;6.63;;
72335;SDS011;65062;48.446;8.834;2023-03-16T08:44:04;12.00;;;7.40;;
72335;SDS011;65062;48.446;8.834;2023-03-16T08:47:06;9.48;;;6.50;;
72335;SDS011;65062;48.446;8.834;2023-03-16T08:50:07;7.30;;;5.00;;
72335;SDS011;65062;48.446;8.834;2023-03-16T08:53:10;7.05;;;5.05;;
72335;SDS011;65062;48.446;8.834;2023-03-16T08:56:12;4.32;;;3.25;;
72335;SDS011;65062;48.446;8.834;2023-03-16T08:59:13;7.68;;;4.95;;
72335;SDS011;65062;48.446;8.834;2023-03-16T09:02:13;12.57;;;8.43;;
72335;SDS011;65062;48.446;8.834;2023-03-16T09:05:14;7.57;;;4.45;;
72335;SDS011;65062;48.446;8.834;2023-03-16T09:08:15;9.65;;;5.32;;
72335;SDS011;65062;48.446;8.834;2023-03-16T09:11:16;6.50;;;5.00;;
72335;SDS011;65062;48.446;8.834;2023-03-16T09:14:18;7.28;;;5.20;;
72335;SDS011;65062;48.446;8.834;2023-03-16T09:17:18;4.45;;;3.50;;
72335;SDS011;65062;48.446;8.834;2023-03-16T09:20:19;4.85;;;3.78;;
72335;SDS011;65062;48.446;8.834;2023-03-16T09:23:20;7.55;;;5.60;;
72335;SDS011;65062;48.446;8.834;2023-03-16T09:26:20;6.45;;;4.40;;
72335;SDS011;65062;48.446;8.834;2023-03-16T09:29:21;4.45;;;2.80;;
72335;SDS011;65062;48.446;8.834;2023-03-16T09:32:22;5.72;;;4.22;;
72335;SDS011;65062;48.446;8.834;2023-03-16T09:35:22;5.53;;;4.05;;
72335;SDS011;65062;48.446;8.834;2023-03-16T09:38:23;5.07;;;3.47;;
72335;SDS011;65062;48.446;8.834;2023-03-16T09:47:49;4.65;;;2.92;;
72335;SDS011;65062;48.446;8.834;2023-03-16T09:50:55;4.82;;;2.63;;
72335;SDS011;65062;48.446;8.834;2023-03-16T09:53:58;6.88;;;5.20;;
72335;SDS011;65062;48.446;8.834;2023-03-16T09:57:02;5.32;;;3.80;;
72335;SDS011;65062;48.446;8.834;2023-03-16T10:03:18;5.28;;;3.97;;
72335;SDS011;65062;48.446;8.834;2023-03-16T10:06:28;5.50;;;4.88;;
72335;SDS011;65062;48.446;8.834;2023-03-16T10:09:37;6.63;;;4.43;;
72335;SDS011;65062;48.446;8.834;2023-03-16T10:12:48;4.05;;;2.60;;
72335;SDS011;65062;48.446;8.834;2023-03-16T10:15:51;4.63;;;3.22;;
72335;SDS011;65062;48.446;8.834;2023-03-16T10:22:29;4.57;;;3.40;;
72335;SDS011;65062;48.446;8.834;2023-03-16T10:25:43;4.13;;;3.40;;
72335;SDS011;65062;48.446;8.834;2023-03-16T10:28:51;2.90;;;2.33;;
72335;SDS011;65062;48.446;8.834;2023-03-16T10:31:53;5.15;;;2.80;;
72335;SDS011;65062;48.446;8.834;2023-03-16T10:35:01;3.95;;;2.60;;
72335;SDS011;65062;48.446;8.834;2023-03-16T10:38:06;3.92;;;2.30;;
72335;SDS011;65062;48.446;8.834;2023-03-16T10:44:22;4.05;;;2.42;;
72335;SDS011;65062;48.446;8.834;2023-03-16T10:47:27;3.30;;;2.08;;
72335;SDS011;65062;48.446;8.834;2023-03-16T10:50:31;2.65;;;2.40;;
72335;SDS011;65062;48.446;8.834;2023-03-16T10:53:34;5.95;;;2.90;;
72335;SDS011;65062;48.446;8.834;2023-03-16T10:56:38;3.75;;;2.80;;
72335;SDS011;65062;48.446;8.834;2023-03-16T10:59:39;4.20;;;2.78;;
72335;SDS011;65062;48.446;8.834;2023-03-16T11:02:39;3.42;;;2.80;;
72335;SDS011;65062;48.446;8.834;2023-03-16T11:05:39;3.78;;;2.00;;
72335;SDS011;65062;48.446;8.834;2023-03-16T11:08:40;3.22;;;2.60;;
72335;SDS011;65062;48.446;8.834;2023-03-16T11:11:45;3.13;;;2.67;;
72335;SDS011;65062;48.446;8.834;2023-03-16T11:14:48;2.42;;;1.92;;
72335;SDS011;65062;48.446;8.834;2023-03-16T11:17:50;2.92;;;2.10;;
72335;SDS011;65062;48.446;8.834;2023-03-16T11:20:55;2.83;;;1.63;;
72335;SDS011;65062;48.446;8.834;2023-03-16T11:23:59;4.60;;;2.30;;
72335;SDS011;65062;48.446;8.834;2023-03-16T11:27:03;3.35;;;2.00;;
72335;SDS011;65062;48.446;8.834;2023-03-16T11:33:30;3.22;;;2.22;;
72335;SDS011;65062;48.446;8.834;2023-03-16T11:36:40;3.40;;;2.10;;
72335;SDS011;65062;48.446;8.834;2023-03-16T11:43:19;1.77;;;1.65;;
72335;SDS011;65062;48.446;8.834;2023-03-16T11:53:40;2.08;;;1.40;;
72335;SDS011;65062;48.446;8.834;2023-03-16T12:16:34;3.20;;;1.77;;
72335;SDS011;65062;48.446;8.834;2023-03-16T12:23:28;1.90;;;1.40;;
72335;SDS011;65062;48.446;8.834;2023-03-16T12:26:51;1.92;;;1.25;;
72335;SDS011;65062;48.446;8.834;2023-03-16T12:36:54;1.08;;;0.73;;
72335;SDS011;65062;48.446;8.834;2023-03-16T12:49:44;1.60;;;0.98;;
72335;SDS011;65062;48.446;8.834;2023-03-16T12:55:47;2.03;;;1.13;;
72335;SDS011;65062;48.446;8.834;2023-03-16T12:58:48;1.50;;;1.10;;
72335;SDS011;65062;48.446;8.834;2023-03-16T13:01:56;1.70;;;0.80;;
72335;SDS011;65062;48.446;8.834;2023-03-16T13:05:02;4.00;;;3.33;;
72335;SDS011;65062;48.446;8.834;2023-03-16T13:08:09;1.27;;;1.17;;
72335;SDS011;65062;48.446;8.834;2023-03-16T13:11:12;1.85;;;0.93;;
72335;SDS011;65062;48.446;8.834;2023-03-16T13:14:29;2.67;;;1.00;;
72335;SDS011;65062;48.446;8.834;2023-03-16T13:17:34;2.58;;;0.82;;
72335;SDS011;65062;48.446;8.834;2023-03-16T13:23:56;0.70;;;0.70;;
72335;SDS011;65062;48.446;8.834;2023-03-16T13:27:01;1.95;;;0.73;;
72335;SDS011;65062;48.446;8.834;2023-03-16T13:30:14;1.27;;;0.75;;
72335;SDS011;65062;48.446;8.834;2023-03-16T13:33:25;1.05;;;0.70;;
72335;SDS011;65062;48.446;8.834;2023-03-16T13:36:27;1.08;;;0.73;;
72335;SDS011;65062;48.446;8.834;2023-03-16T13:39:30;1.00;;;0.43;;
72335;SDS011;65062;48.446;8.834;2023-03-16T13:42:31;1.35;;;0.82;;
72335;SDS011;65062;48.446;8.834;2023-03-16T13:45:33;1.70;;;0.90;;
72335;SDS011;65062;48.446;8.834;2023-03-16T13:48:37;0.88;;;0.77;;
72335;SDS011;65062;48.446;8.834;2023-03-16T13:51:39;1.15;;;0.80;;
72335;SDS011;65062;48.446;8.834;2023-03-16T13:54:41;2.45;;;0.70;;
72335;SDS011;65062;48.446;8.834;2023-03-16T13:57:42;2.85;;;1.90;;
72335;SDS011;65062;48.446;8.834;2023-03-16T14:00:43;3.03;;;2.72;;
72335;SDS011;65062;48.446;8.834;2023-03-16T14:03:46;4.55;;;4.03;;
72335;SDS011;65062;48.446;8.834;2023-03-16T14:07:19;1.30;;;0.95;;
72335;SDS011;65062;48.446;8.834;2023-03-16T14:10:17;0.80;;;0.60;;
72335;SDS011;65062;48.446;8.834;2023-03-16T14:16:31;0.60;;;0.40;;
72335;SDS011;65062;48.446;8.834;2023-03-16T14:19:36;1.63;;;0.90;;
72335;SDS011;65062;48.446;8.834;2023-03-16T14:22:42;3.30;;;3.00;;
72335;SDS011;65062;48.446;8.834;2023-03-16T14:25:43;1.73;;;1.20;;
72335;SDS011;65062;48.446;8.834;2023-03-16T14:28:59;0.95;;;0.43;;
72335;SDS011;65062;48.446;8.834;2023-03-16T14:32:02;1.10;;;0.93;;
72335;SDS011;65062;48.446;8.834;2023-03-16T14:38:32;0.90;;;0.30;;
72335;SDS011;65062;48.446;8.834;2023-03-16T14:44:37;1.00;;;0.68;;
72335;SDS011;65062;48.446;8.834;2023-03-16T14:47:40;1.92;;;0.70;;
72335;SDS011;65062;48.446;8.834;2023-03-16T14:50:42;1.25;;;0.90;;
72335;SDS011;65062;48.446;8.834;2023-03-16T14:53:43;1.10;;;0.63;;
72335;SDS011;65062;48.446;8.834;2023-03-16T14:59:48;1.00;;;0.70;;
72335;SDS011;65062;48.446;8.834;2023-03-16T15:02:53;1.45;;;0.85;;
72335;SDS011;65062;48.446;8.834;2023-03-16T15:05:58;0.93;;;0.70;;
72335;SDS011;65062;48.446;8.834;2023-03-16T15:09:00;1.65;;;0.80;;
72335;SDS011;65062;48.446;8.834;2023-03-16T15:12:00;0.75;;;0.65;;
72335;SDS011;65062;48.446;8.834;2023-03-16T15:15:04;1.20;;;0.75;;
72335;SDS011;65062;48.446;8.834;2023-03-16T15:18:17;3.33;;;1.70;;
72335;SDS011;65062;48.446;8.834;2023-03-16T15:21:20;2.15;;;1.95;;
72335;SDS011;65062;48.446;8.834;2023-03-16T15:24:22;1.35;;;0.60;;
72335;SDS011;65062;48.446;8.834;2023-03-16T15:27:24;0.90;;;0.50;;
72335;SDS011;65062;48.446;8.834;2023-03-16T15:30:30;1.98;;;1.10;;
72335;SDS011;65062;48.446;8.834;2023-03-16T15:33:31;1.88;;;1.20;;
72335;SDS011;65062;48.446;8.834;2023-03-16T15:36:32;2.30;;;1.77;;
72335;SDS011;65062;48.446;8.834;2023-03-16T15:39:32;2.00;;;1.70;;
72335;SDS011;65062;48.446;8.834;2023-03-16T15:42:32;0.85;;;0.60;;
72335;SDS011;65062;48.446;8.834;2023-03-16T15:45:33;0.77;;;0.70;;
72335;SDS011;65062;48.446;8.834;2023-03-16T15:48:33;0.80;;;0.55;;
72335;SDS011;65062;48.446;8.834;2023-03-16T15:51:33;0.65;;;0.65;;
72335;SDS011;65062;48.446;8.834;2023-03-16T15:54:34;1.60;;;1.10;;
72335;SDS011;65062;48.446;8.834;2023-03-16T15:57:35;1.60;;;1.20;;
72335;SDS011;65062;48.446;8.834;2023-03-16T16:00:36;2.60;;;1.60;;
72335;SDS011;65062;48.446;8.834;2023-03-16T16:03:38;3.47;;;1.60;;
72335;SDS011;65062;48.446;8.834;2023-03-16T16:06:39;1.70;;;1.33;;
72335;SDS011;65062;48.446;8.834;2023-03-16T16:09:40;1.48;;;1.05;;
72335;SDS011;65062;48.446;8.834;2023-03-16T16:12:40;1.73;;;1.25;;
72335;SDS011;65062;48.446;8.834;2023-03-16T16:15:42;2.50;;;2.30;;
72335;SDS011;65062;48.446;8.834;2023-03-16T16:18:46;2.10;;;1.40;;
72335;SDS011;65062;48.446;8.834;2023-03-16T16:21:47;3.90;;;2.50;;
72335;SDS011;65062;48.446;8.834;2023-03-16T16:24:47;1.40;;;1.17;;
72335;SDS011;65062;48.446;8.834;2023-03-16T16:27:48;1.73;;;1.45;;
72335;SDS011;65062;48.446;8.834;2023-03-16T16:30:50;2.33;;;1.38;;
72335;SDS011;65062;48.446;8.834;2023-03-16T16:33:51;15.73;;;5.38;;
72335;SDS011;65062;48.446;8.834;2023-03-16T16:36:52;9.20;;;3.97;;
72335;SDS011;65062;48.446;8.834;2023-03-16T16:39:53;2.60;;;1.70;;
72335;SDS011;65062;48.446;8.834;2023-03-16T16:42:53;2.97;;;1.75;;
72335;SDS011;65062;48.446;8.834;2023-03-16T16:45:54;3.25;;;1.75;;
72335;SDS011;65062;48.446;8.834;2023-03-16T16:48:59;1.77;;;1.13;;
72335;SDS011;65062;48.446;8.834;2023-03-16T16:52:04;1.63;;;1.13;;
72335;SDS011;65062;48.446;8.834;2023-03-16T16:55:05;2.20;;;1.13;;
72335;SDS011;65062;48.446;8.834;2023-03-16T16:58:07;1.20;;;1.10;;
72335;SDS011;65062;48.446;8.834;2023-03-16T17:01:12;1.75;;;1.17;;
72335;SDS011;65062;48.446;8.834;2023-03-16T17:04:18;2.95;;;2.13;;
72335;SDS011;65062;48.446;8.834;2023-03-16T17:07:24;3.38;;;1.30;;
72335;SDS011;65062;48.446;8.834;2023-03-16T17:10:25;2.42;;;1.00;;
72335;SDS011;65062;48.446;8.834;2023-03-16T17:16:40;2.78;;;0.60;;
72335;SDS011;65062;48.446;8.834;2023-03-16T17:19:41;1.25;;;0.82;;
72335;SDS011;65062;48.446;8.834;2023-03-16T17:22:48;1.08;;;0.95;;
72335;SDS011;65062;48.446;8.834;2023-03-16T17:25:49;1.85;;;1.10;;
72335;SDS011;65062;48.446;8.834;2023-03-16T17:31:52;1.65;;;1.35;;
72335;SDS011;65062;48.446;8.834;2023-03-16T17:34:52;1.38;;;0.93;;
72335;SDS011;65062;48.446;8.834;2023-03-16T17:37:53;4.30;;;1.30;;
72335;SDS011;65062;48.446;8.834;2023-03-16T17:40:53;2.65;;;1.00;;
72335;SDS011;65062;48.446;8.834;2023-03-16T17:43:55;1.70;;;1.10;;
72335;SDS011;65062;48.446;8.834;2023-03-16T17:46:59;2.95;;;1.25;;
72335;SDS011;65062;48.446;8.834;2023-03-16T17:50:00;1.77;;;1.20;;
72335;SDS011;65062;48.446;8.834;2023-03-16T17:53:01;1.73;;;0.80;;
72335;SDS011;65062;48.446;8.834;2023-03-16T17:56:04;2.83;;;1.40;;
72335;SDS011;65062;48.446;8.834;2023-03-16T17:59:15;1.40;;;1.23;;
72335;SDS011;65062;48.446;8.834;2023-03-16T18:02:31;2.25;;;1.30;;
72335;SDS011;65062;48.446;8.834;2023-03-16T18:05:34;2.05;;;1.33;;
72335;SDS011;65062;48.446;8.834;2023-03-16T18:08:34;1.45;;;1.10;;
72335;SDS011;65062;48.446;8.834;2023-03-16T18:11:35;1.33;;;1.00;;
72335;SDS011;65062;48.446;8.834;2023-03-16T18:14:40;2.65;;;1.67;;
72335;SDS011;65062;48.446;8.834;2023-03-16T18:17:40;1.45;;;1.00;;
72335;SDS011;65062;48.446;8.834;2023-03-16T18:20:42;3.67;;;1.60;;
72335;SDS011;65062;48.446;8.834;2023-03-16T18:23:43;6.03;;;2.30;;
72335;SDS011;65062;48.446;8.834;2023-03-16T18:26:44;2.70;;;1.88;;
72335;SDS011;65062;48.446;8.834;2023-03-16T18:29:44;2.55;;;1.88;;
72335;SDS011;65062;48.446;8.834;2023-03-16T18:32:45;1.70;;;1.08;;
72335;SDS011;65062;48.446;8.834;2023-03-16T18:35:47;5.60;;;1.85;;
72335;SDS011;65062;48.446;8.834;2023-03-16T18:38:48;3.00;;;2.00;;
72335;SDS011;65062;48.446;8.834;2023-03-16T18:41:51;4.18;;;1.83;;
72335;SDS011;65062;48.446;8.834;2023-03-16T18:44:52;2.78;;;2.03;;
72335;SDS011;65062;48.446;8.834;2023-03-16T18:47:53;2.35;;;1.92;;
72335;SDS011;65062;48.446;8.834;2023-03-16T18:50:55;2.75;;;1.90;;
72335;SDS011;65062;48.446;8.834;2023-03-16T18:53:56;5.03;;;2.00;;
72335;SDS011;65062;48.446;8.834;2023-03-16T18:56:57;2.63;;;1.90;;
72335;SDS011;65062;48.446;8.834;2023-03-16T18:59:57;3.85;;;2.20;;
72335;SDS011;65062;48.446;8.834;2023-03-16T19:02:58;4.78;;;2.40;;
72335;SDS011;65062;48.446;8.834;2023-03-16T19:06:02;4.57;;;2.40;;
72335;SDS011;65062;48.446;8.834;2023-03-16T19:09:05;2.88;;;2.22;;
72335;SDS011;65062;48.446;8.834;2023-03-16T19:12:14;3.60;;;2.45;;
72335;SDS011;65062;48.446;8.834;2023-03-16T19:15:19;3.42;;;2.60;;
72335;SDS011;65062;48.446;8.834;2023-03-16T19:18:24;5.57;;;2.92;;
72335;SDS011;65062;48.446;8.834;2023-03-16T19:21:25;6.97;;;5.22;;
72335;SDS011;65062;48.446;8.834;2023-03-16T19:24:30;8.65;;;5.80;;
72335;SDS011;65062;48.446;8.834;2023-03-16T19:27:33;11.27;;;8.15;;
72335;SDS011;65062;48.446;8.834;2023-03-16T19:30:35;12.68;;;9.20;;
72335;SDS011;65062;48.446;8.834;2023-03-16T19:33:36;9.95;;;7.60;;
72335;SDS011;65062;48.446;8.834;2023-03-16T19:36:37;7.18;;;4.95;;
72335;SDS011;65062;48.446;8.834;2023-03-16T19:39:38;7.25;;;4.47;;
72335;SDS011;65062;48.446;8.834;2023-03-16T19:42:38;10.98;;;5.78;;
72335;SDS011;65062;48.446;8.834;2023-03-16T19:45:41;7.40;;;6.00;;
72335;SDS011;65062;48.446;8.834;2023-03-16T19:48:42;7.07;;;5.60;;
72335;SDS011;65062;48.446;8.834;2023-03-16T19:51:42;10.75;;;6.97;;
72335;SDS011;65062;48.446;8.834;2023-03-16T19:54:43;14.13;;;8.02;;
72335;SDS011;65062;48.446;8.834;2023-03-16T19:57:44;10.82;;;6.55;;
72335;SDS011;65062;48.446;8.834;2023-03-16T20:00:47;9.73;;;5.57;;